sensor_id;sensor_type;location;lat;lon;timestamp;pressure;altitude;pressure_sealevel;temperature;humidity
11692;BME280;33659;42.672;23.354;2022-07-21T00:01:13;94672.19;;;24.31;43.73
11692;BME280;33659;42.672;23.354;2022-07-21T00:03:39;94677.56;;;24.28;44.08
11692;BME280;33659;42.672;23.354;2022-07-21T00:06:07;94674.63;;;24.22;44.15
11692;BME280;33659;42.672;23.354;2022-07-21T00:08:34;94680.38;;;24.21;44.15
11692;BME280;33659;42.672;23.354;2022-07-21T00:11:03;94674.75;;;24.15;43.73
11692;BME280;33659;42.672;23.354;2022-07-21T00:13:30;94675.09;;;24.17;43.39
11692;BME280;33659;42.672;23.354;2022-07-21T00:15:57;94679.22;;;24.22;43.48
11692;BME280;33659;42.672;23.354;2022-07-21T00:18:24;94670.84;;;24.20;43.29
11692;BME280;33659;42.672;23.354;2022-07-21T00:20:53;94673.97;;;24.15;43.52
11692;BME280;33659;42.672;23.354;2022-07-21T00:23:20;94675.56;;;24.12;43.29
11692;BME280;33659;42.672;23.354;2022-07-21T00:25:47;94668.66;;;24.15;43.13
11692;BME280;33659;42.672;23.354;2022-07-21T00:28:16;94678.56;;;24.14;43.32
11692;BME280;33659;42.672;23.354;2022-07-21T00:30:43;94677.47;;;24.12;43.79
11692;BME280;33659;42.672;23.354;2022-07-21T00:33:09;94679.81;;;24.10;43.78
11692;BME280;33659;42.672;23.354;2022-07-21T00:35:36;94670.97;;;24.13;43.55
11692;BME280;33659;42.672;23.354;2022-07-21T00:38:04;94669.59;;;24.04;43.60
11692;BME280;33659;42.672;23.354;2022-07-21T00:40:31;94671.50;;;24.04;43.57
11692;BME280;33659;42.672;23.354;2022-07-21T00:42:58;94678.34;;;24.05;43.29
11692;BME280;33659;42.672;23.354;2022-07-21T00:45:27;94671.22;;;23.98;42.83
11692;BME280;33659;42.672;23.354;2022-07-21T00:47:53;94672.00;;;23.95;42.88
11692;BME280;33659;42.672;23.354;2022-07-21T00:50:20;94653.63;;;23.77;42.92
11692;BME280;33659;42.672;23.354;2022-07-21T00:52:48;94676.88;;;23.77;43.23
11692;BME280;33659;42.672;23.354;2022-07-21T00:55:17;94660.28;;;23.66;43.09
11692;BME280;33659;42.672;23.354;2022-07-21T00:57:45;94679.16;;;23.78;43.13
11692;BME280;33659;42.672;23.354;2022-07-21T01:00:14;94681.41;;;23.80;43.39
11692;BME280;33659;42.672;23.354;2022-07-21T01:02:42;94673.00;;;23.82;43.84
11692;BME280;33659;42.672;23.354;2022-07-21T01:05:11;94667.00;;;23.74;43.35
11692;BME280;33659;42.672;23.354;2022-07-21T01:07:41;94662.63;;;23.60;43.50
11692;BME280;33659;42.672;23.354;2022-07-21T01:10:09;94659.00;;;23.47;43.97
11692;BME280;33659;42.672;23.354;2022-07-21T01:12:36;94659.88;;;23.37;44.88
11692;BME280;33659;42.672;23.354;2022-07-21T01:15:04;94663.28;;;23.10;46.30
11692;BME280;33659;42.672;23.354;2022-07-21T01:17:31;94658.94;;;22.93;46.71
11692;BME280;33659;42.672;23.354;2022-07-21T01:20:00;94652.28;;;22.74;47.46
11692;BME280;33659;42.672;23.354;2022-07-21T01:22:30;94652.06;;;22.58;48.35
11692;BME280;33659;42.672;23.354;2022-07-21T01:24:57;94656.81;;;22.43;48.39
11692;BME280;33659;42.672;23.354;2022-07-21T01:27:25;94652.19;;;22.47;48.50
11692;BME280;33659;42.672;23.354;2022-07-21T01:29:52;94648.66;;;22.57;48.19
11692;BME280;33659;42.672;23.354;2022-07-21T01:32:18;94651.56;;;22.70;47.79
11692;BME280;33659;42.672;23.354;2022-07-21T01:34:45;94651.44;;;22.81;47.02
11692;BME280;33659;42.672;23.354;2022-07-21T01:37:13;94647.25;;;22.80;47.39
11692;BME280;33659;42.672;23.354;2022-07-21T01:39:41;94646.75;;;22.92;47.64
11692;BME280;33659;42.672;23.354;2022-07-21T01:42:25;94649.34;;;22.99;47.42
11692;BME280;33659;42.672;23.354;2022-07-21T01:44:52;94643.56;;;23.04;47.05
11692;BME280;33659;42.672;23.354;2022-07-21T01:47:19;94648.88;;;23.08;47.13
11692;BME280;33659;42.672;23.354;2022-07-21T01:49:48;94644.63;;;23.10;47.37
11692;BME280;33659;42.672;23.354;2022-07-21T01:52:15;94641.88;;;23.17;46.82
11692;BME280;33659;42.672;23.354;2022-07-21T01:54:43;94641.78;;;23.24;46.84
11692;BME280;33659;42.672;23.354;2022-07-21T01:57:09;94641.00;;;23.28;46.70
11692;BME280;33659;42.672;23.354;2022-07-21T01:59:36;94644.75;;;23.30;46.36
11692;BME280;33659;42.672;23.354;2022-07-21T02:02:03;94647.03;;;23.32;46.39
11692;BME280;33659;42.672;23.354;2022-07-21T02:04:30;94642.06;;;23.34;46.50
11692;BME280;33659;42.672;23.354;2022-07-21T02:06:59;94647.78;;;23.32;46.49
11692;BME280;33659;42.672;23.354;2022-07-21T02:09:26;94638.66;;;23.30;46.20
11692;BME280;33659;42.672;23.354;2022-07-21T02:11:55;94644.72;;;23.34;46.35
11692;BME280;33659;42.672;23.354;2022-07-21T02:14:22;94632.66;;;23.26;46.26
11692;BME280;33659;42.672;23.354;2022-07-21T02:16:48;94640.28;;;23.23;46.24
11692;BME280;33659;42.672;23.354;2022-07-21T02:19:15;94641.78;;;23.24;46.31
11692;BME280;33659;42.672;23.354;2022-07-21T02:21:42;94650.56;;;23.25;45.83
11692;BME280;33659;42.672;23.354;2022-07-21T02:24:09;94640.66;;;23.26;45.99
11692;BME280;33659;42.672;23.354;2022-07-21T02:26:36;94630.84;;;23.19;45.90
11692;BME280;33659;42.672;23.354;2022-07-21T02:29:04;94636.91;;;23.19;45.83
11692;BME280;33659;42.672;23.354;2022-07-21T02:31:31;94644.84;;;23.23;45.74
11692;BME280;33659;42.672;23.354;2022-07-21T02:33:58;94637.97;;;23.26;45.76
11692;BME280;33659;42.672;23.354;2022-07-21T02:36:24;94640.25;;;23.27;46.04
11692;BME280;33659;42.672;23.354;2022-07-21T02:38:52;94637.22;;;23.25;46.04
11692;BME280;33659;42.672;23.354;2022-07-21T02:41:19;94639.50;;;23.27;46.06
11692;BME280;33659;42.672;23.354;2022-07-21T02:43:46;94629.25;;;23.25;45.80
11692;BME280;33659;42.672;23.354;2022-07-21T02:46:14;94628.53;;;23.21;45.52
11692;BME280;33659;42.672;23.354;2022-07-21T02:48:41;94627.41;;;23.18;45.50
11692;BME280;33659;42.672;23.354;2022-07-21T02:51:08;94627.00;;;23.20;45.36
11692;BME280;33659;42.672;23.354;2022-07-21T02:53:34;94633.19;;;23.13;45.47
11692;BME280;33659;42.672;23.354;2022-07-21T02:56:01;94637.09;;;23.05;45.58
11692;BME280;33659;42.672;23.354;2022-07-21T02:58:29;94633.06;;;22.93;45.98
11692;BME280;33659;42.672;23.354;2022-07-21T03:00:57;94635.41;;;22.88;46.25
11692;BME280;33659;42.672;23.354;2022-07-21T03:03:27;94624.53;;;22.71;46.94
11692;BME280;33659;42.672;23.354;2022-07-21T03:05:55;94621.19;;;22.67;46.83
11692;BME280;33659;42.672;23.354;2022-07-21T03:08:22;94636.69;;;22.73;46.76
11692;BME280;33659;42.672;23.354;2022-07-21T03:10:49;94641.00;;;22.63;46.87
11692;BME280;33659;42.672;23.354;2022-07-21T03:13:16;94645.28;;;22.53;47.21
11692;BME280;33659;42.672;23.354;2022-07-21T03:15:43;94637.44;;;22.39;47.02
11692;BME280;33659;42.672;23.354;2022-07-21T03:18:11;94632.19;;;22.32;47.06
11692;BME280;33659;42.672;23.354;2022-07-21T03:20:41;94648.59;;;22.27;46.83
11692;BME280;33659;42.672;23.354;2022-07-21T03:23:08;94648.22;;;22.25;46.88
11692;BME280;33659;42.672;23.354;2022-07-21T03:25:35;94647.44;;;22.28;46.93
11692;BME280;33659;42.672;23.354;2022-07-21T03:28:02;94638.69;;;22.27;47.20
11692;BME280;33659;42.672;23.354;2022-07-21T03:30:29;94645.50;;;22.32;46.97
11692;BME280;33659;42.672;23.354;2022-07-21T03:32:57;94644.75;;;22.31;46.75
11692;BME280;33659;42.672;23.354;2022-07-21T03:35:24;94643.56;;;22.36;46.82
11692;BME280;33659;42.672;23.354;2022-07-21T03:37:54;94644.19;;;22.47;46.92
11692;BME280;33659;42.672;23.354;2022-07-21T03:40:24;94653.25;;;22.57;46.21
11692;BME280;33659;42.672;23.354;2022-07-21T03:42:52;94642.91;;;22.62;46.59
11692;BME280;33659;42.672;23.354;2022-07-21T03:45:19;94656.81;;;22.77;46.23
11692;BME280;33659;42.672;23.354;2022-07-21T03:47:47;94653.31;;;22.87;45.99
11692;BME280;33659;42.672;23.354;2022-07-21T03:50:13;94655.16;;;22.90;46.18
11692;BME280;33659;42.672;23.354;2022-07-21T03:52:42;94667.69;;;22.93;46.05
11692;BME280;33659;42.672;23.354;2022-07-21T03:55:10;94663.50;;;22.92;46.35
11692;BME280;33659;42.672;23.354;2022-07-21T03:57:41;94656.03;;;22.80;46.46
11692;BME280;33659;42.672;23.354;2022-07-21T04:00:12;94656.97;;;22.63;46.89
11692;BME280;33659;42.672;23.354;2022-07-21T04:02:39;94658.56;;;22.57;47.12
11692;BME280;33659;42.672;23.354;2022-07-21T04:05:08;94657.81;;;22.56;47.23
11692;BME280;33659;42.672;23.354;2022-07-21T04:07:36;94657.75;;;22.60;47.46
11692;BME280;33659;42.672;23.354;2022-07-21T04:10:05;94663.88;;;22.57;47.65
11692;BME280;33659;42.672;23.354;2022-07-21T04:12:33;94665.38;;;22.58;47.51
11692;BME280;33659;42.672;23.354;2022-07-21T04:15:00;94657.00;;;22.59;47.54
11692;BME280;33659;42.672;23.354;2022-07-21T04:17:27;94662.25;;;22.66;47.71
11692;BME280;33659;42.672;23.354;2022-07-21T04:19:54;94664.44;;;22.75;47.71
11692;BME280;33659;42.672;23.354;2022-07-21T04:22:21;94666.16;;;22.92;47.36
11692;BME280;33659;42.672;23.354;2022-07-21T04:24:48;94662.19;;;23.08;46.82
11692;BME280;33659;42.672;23.354;2022-07-21T04:27:15;94662.03;;;23.18;46.58
11692;BME280;33659;42.672;23.354;2022-07-21T04:29:43;94663.03;;;23.32;46.30
11692;BME280;33659;42.672;23.354;2022-07-21T04:32:10;94653.13;;;23.32;45.44
11692;BME280;33659;42.672;23.354;2022-07-21T04:34:36;94661.31;;;23.45;45.04
11692;BME280;33659;42.672;23.354;2022-07-21T04:37:03;94673.69;;;23.59;44.75
11692;BME280;33659;42.672;23.354;2022-07-21T04:39:30;94671.38;;;23.61;44.91
11692;BME280;33659;42.672;23.354;2022-07-21T04:41:57;94667.94;;;23.64;44.69
11692;BME280;33659;42.672;23.354;2022-07-21T04:44:24;94666.78;;;23.65;44.71
11692;BME280;33659;42.672;23.354;2022-07-21T04:46:52;94668.19;;;23.73;44.47
11692;BME280;33659;42.672;23.354;2022-07-21T04:49:19;94665.34;;;23.84;44.29
11692;BME280;33659;42.672;23.354;2022-07-21T04:51:46;94675.09;;;23.94;44.14
11692;BME280;33659;42.672;23.354;2022-07-21T04:54:12;94676.13;;;24.00;43.86
11692;BME280;33659;42.672;23.354;2022-07-21T04:56:40;94679.44;;;24.08;43.44
11692;BME280;33659;42.672;23.354;2022-07-21T04:59:07;94683.28;;;24.07;43.21
11692;BME280;33659;42.672;23.354;2022-07-21T05:01:34;94684.38;;;24.09;42.80
11692;BME280;33659;42.672;23.354;2022-07-21T05:04:04;94682.94;;;24.04;43.19
11692;BME280;33659;42.672;23.354;2022-07-21T05:06:31;94681.19;;;23.94;43.70
11692;BME280;33659;42.672;23.354;2022-07-21T05:08:57;94680.19;;;23.85;44.03
11692;BME280;33659;42.672;23.354;2022-07-21T05:11:24;94680.19;;;23.85;43.82
11692;BME280;33659;42.672;23.354;2022-07-21T05:13:51;94677.16;;;23.83;44.03
11692;BME280;33659;42.672;23.354;2022-07-21T05:16:18;94675.75;;;23.74;44.43
11692;BME280;33659;42.672;23.354;2022-07-21T05:18:45;94679.78;;;23.59;44.63
11692;BME280;33659;42.672;23.354;2022-07-21T05:21:13;94675.84;;;23.40;44.82
11692;BME280;33659;42.672;23.354;2022-07-21T05:23:40;94675.41;;;23.45;45.34
11692;BME280;33659;42.672;23.354;2022-07-21T05:26:07;94672.66;;;23.49;44.86
11692;BME280;33659;42.672;23.354;2022-07-21T05:28:34;94682.88;;;23.54;45.38
11692;BME280;33659;42.672;23.354;2022-07-21T05:31:00;94683.59;;;23.58;45.38
11692;BME280;33659;42.672;23.354;2022-07-21T05:33:27;94680.34;;;23.74;45.24
11692;BME280;33659;42.672;23.354;2022-07-21T05:35:54;94677.81;;;23.90;45.15
11692;BME280;33659;42.672;23.354;2022-07-21T05:38:22;94682.53;;;24.06;45.07
11692;BME280;33659;42.672;23.354;2022-07-21T05:40:49;94685.25;;;24.26;44.40
11692;BME280;33659;42.672;23.354;2022-07-21T05:43:16;94683.28;;;24.30;43.98
11692;BME280;33659;42.672;23.354;2022-07-21T05:45:43;94686.59;;;24.38;43.62
11692;BME280;33659;42.672;23.354;2022-07-21T05:48:09;94681.00;;;24.52;43.57
11692;BME280;33659;42.672;23.354;2022-07-21T05:50:36;94683.03;;;24.68;43.16
11692;BME280;33659;42.672;23.354;2022-07-21T05:53:03;94677.06;;;24.80;42.79
11692;BME280;33659;42.672;23.354;2022-07-21T05:55:31;94683.44;;;24.86;42.39
11692;BME280;33659;42.672;23.354;2022-07-21T05:57:58;94680.28;;;24.91;41.89
11692;BME280;33659;42.672;23.354;2022-07-21T06:00:25;94681.31;;;24.97;41.74
11692;BME280;33659;42.672;23.354;2022-07-21T06:02:51;94678.56;;;25.01;41.25
11692;BME280;33659;42.672;23.354;2022-07-21T06:05:18;94682.97;;;25.11;41.61
11692;BME280;33659;42.672;23.354;2022-07-21T06:07:45;94680.66;;;25.13;41.78
11692;BME280;33659;42.672;23.354;2022-07-21T06:10:13;94681.25;;;25.21;41.75
11692;BME280;33659;42.672;23.354;2022-07-21T06:12:42;94682.16;;;25.14;41.39
11692;BME280;33659;42.672;23.354;2022-07-21T06:15:10;94678.31;;;25.15;41.23
11692;BME280;33659;42.672;23.354;2022-07-21T06:17:41;94673.66;;;25.19;41.50
11692;BME280;33659;42.672;23.354;2022-07-21T06:20:08;94667.78;;;25.24;41.32
11692;BME280;33659;42.672;23.354;2022-07-21T06:22:36;94671.16;;;25.28;41.40
11692;BME280;33659;42.672;23.354;2022-07-21T06:25:04;94661.97;;;25.29;41.42
11692;BME280;33659;42.672;23.354;2022-07-21T06:27:31;94667.00;;;25.44;41.21
11692;BME280;33659;42.672;23.354;2022-07-21T06:29:59;94667.53;;;25.55;40.75
11692;BME280;33659;42.672;23.354;2022-07-21T06:32:26;94670.47;;;25.60;40.54
11692;BME280;33659;42.672;23.354;2022-07-21T06:34:53;94668.81;;;25.66;40.50
11692;BME280;33659;42.672;23.354;2022-07-21T06:37:19;94665.56;;;25.75;40.30
11692;BME280;33659;42.672;23.354;2022-07-21T06:39:47;94667.00;;;25.80;40.19
11692;BME280;33659;42.672;23.354;2022-07-21T06:42:13;94657.72;;;25.84;40.10
11692;BME280;33659;42.672;23.354;2022-07-21T06:44:40;94661.31;;;25.94;40.29
11692;BME280;33659;42.672;23.354;2022-07-21T06:47:08;94660.81;;;25.99;40.31
11692;BME280;33659;42.672;23.354;2022-07-21T06:49:35;94660.63;;;26.06;40.47
11692;BME280;33659;42.672;23.354;2022-07-21T06:52:02;94650.91;;;26.12;40.07
11692;BME280;33659;42.672;23.354;2022-07-21T06:54:28;94648.50;;;26.18;40.11
11692;BME280;33659;42.672;23.354;2022-07-21T06:56:55;94647.25;;;26.23;40.42
11692;BME280;33659;42.672;23.354;2022-07-21T06:59:22;94648.63;;;26.27;40.47
11692;BME280;33659;42.672;23.354;2022-07-21T07:01:49;94649.81;;;26.26;40.29
11692;BME280;33659;42.672;23.354;2022-07-21T07:04:17;94648.22;;;26.29;40.60
11692;BME280;33659;42.672;23.354;2022-07-21T07:06:44;94647.38;;;26.32;40.35
11692;BME280;33659;42.672;23.354;2022-07-21T07:09:11;94649.06;;;26.26;40.62
11692;BME280;33659;42.672;23.354;2022-07-21T07:11:37;94645.56;;;26.29;40.59
11692;BME280;33659;42.672;23.354;2022-07-21T07:14:04;94644.63;;;26.35;40.29
11692;BME280;33659;42.672;23.354;2022-07-21T07:16:31;94644.50;;;26.39;40.29
11692;BME280;33659;42.672;23.354;2022-07-21T07:18:58;94639.75;;;26.46;40.12
11692;BME280;33659;42.672;23.354;2022-07-21T07:21:26;94635.56;;;26.45;40.17
11692;BME280;33659;42.672;23.354;2022-07-21T07:23:53;94641.78;;;26.42;39.96
11692;BME280;33659;42.672;23.354;2022-07-21T07:26:20;94640.72;;;26.53;40.05
11692;BME280;33659;42.672;23.354;2022-07-21T07:28:46;94643.75;;;26.55;40.15
11692;BME280;33659;42.672;23.354;2022-07-21T07:31:13;94625.72;;;26.42;39.71
11692;BME280;33659;42.672;23.354;2022-07-21T07:33:40;94641.28;;;26.48;40.46
11692;BME280;33659;42.672;23.354;2022-07-21T07:36:07;94630.88;;;26.50;39.66
11692;BME280;33659;42.672;23.354;2022-07-21T07:38:39;94627.81;;;26.35;40.13
11692;BME280;33659;42.672;23.354;2022-07-21T07:41:05;94622.03;;;26.36;40.26
11692;BME280;33659;42.672;23.354;2022-07-21T07:43:32;94616.84;;;26.29;40.21
11692;BME280;33659;42.672;23.354;2022-07-21T07:45:59;94621.53;;;26.25;40.43
11692;BME280;33659;42.672;23.354;2022-07-21T07:48:27;94617.69;;;26.26;40.67
11692;BME280;33659;42.672;23.354;2022-07-21T07:50:56;94620.97;;;26.17;40.35
11692;BME280;33659;42.672;23.354;2022-07-21T07:53:23;94623.97;;;26.19;40.18
11692;BME280;33659;42.672;23.354;2022-07-21T07:55:51;94621.97;;;26.24;40.45
11692;BME280;33659;42.672;23.354;2022-07-21T07:58:18;94613.94;;;26.24;40.25
11692;BME280;33659;42.672;23.354;2022-07-21T08:00:45;94609.25;;;26.28;40.49
11692;BME280;33659;42.672;23.354;2022-07-21T08:03:12;94604.44;;;26.35;40.65
11692;BME280;33659;42.672;23.354;2022-07-21T08:05:38;94601.78;;;26.35;40.75
11692;BME280;33659;42.672;23.354;2022-07-21T08:08:05;94588.28;;;26.39;40.11
11692;BME280;33659;42.672;23.354;2022-07-21T08:10:32;94589.72;;;26.43;40.25
11692;BME280;33659;42.672;23.354;2022-07-21T08:13:01;94610.94;;;26.51;40.44
11692;BME280;33659;42.672;23.354;2022-07-21T08:15:28;94604.28;;;26.42;39.21
11692;BME280;33659;42.672;23.354;2022-07-21T08:17:54;94611.13;;;26.43;39.88
11692;BME280;33659;42.672;23.354;2022-07-21T08:20:21;94596.38;;;26.52;40.61
11692;BME280;33659;42.672;23.354;2022-07-21T08:22:48;94591.81;;;26.65;40.37
11692;BME280;33659;42.672;23.354;2022-07-21T08:25:15;94589.78;;;26.69;40.58
11692;BME280;33659;42.672;23.354;2022-07-21T08:27:41;94587.22;;;26.78;39.78
11692;BME280;33659;42.672;23.354;2022-07-21T08:30:11;94596.91;;;26.88;40.38
11692;BME280;33659;42.672;23.354;2022-07-21T08:32:37;94592.81;;;26.96;40.07
11692;BME280;33659;42.672;23.354;2022-07-21T08:35:06;94590.06;;;27.00;39.93
11692;BME280;33659;42.672;23.354;2022-07-21T08:37:34;94595.72;;;27.02;39.41
11692;BME280;33659;42.672;23.354;2022-07-21T08:40:01;94597.97;;;27.04;38.44
11692;BME280;33659;42.672;23.354;2022-07-21T08:42:29;94585.69;;;27.06;38.47
11692;BME280;33659;42.672;23.354;2022-07-21T08:44:56;94579.25;;;27.16;38.35
11692;BME280;33659;42.672;23.354;2022-07-21T08:47:25;94576.25;;;27.27;38.69
11692;BME280;33659;42.672;23.354;2022-07-21T08:49:53;94572.59;;;27.34;38.00
11692;BME280;33659;42.672;23.354;2022-07-21T08:52:20;94578.72;;;27.47;37.20
11692;BME280;33659;42.672;23.354;2022-07-21T08:54:47;94576.78;;;27.47;37.17
11692;BME280;33659;42.672;23.354;2022-07-21T08:57:14;94570.34;;;27.45;37.39
11692;BME280;33659;42.672;23.354;2022-07-21T08:59:40;94558.53;;;27.42;37.70
11692;BME280;33659;42.672;23.354;2022-07-21T09:02:27;94564.97;;;27.45;37.55
11692;BME280;33659;42.672;23.354;2022-07-21T09:04:54;94546.84;;;27.36;37.63
11692;BME280;33659;42.672;23.354;2022-07-21T09:07:22;94571.81;;;27.59;37.52
11692;BME280;33659;42.672;23.354;2022-07-21T09:09:54;94552.16;;;27.62;37.63
11692;BME280;33659;42.672;23.354;2022-07-21T09:12:22;94555.81;;;27.68;36.98
11692;BME280;33659;42.672;23.354;2022-07-21T09:14:49;94547.44;;;27.66;36.64
11692;BME280;33659;42.672;23.354;2022-07-21T09:17:17;94567.88;;;27.76;36.45
11692;BME280;33659;42.672;23.354;2022-07-21T09:19:46;94551.81;;;27.85;36.82
11692;BME280;33659;42.672;23.354;2022-07-21T09:22:16;94556.66;;;27.90;37.22
11692;BME280;33659;42.672;23.354;2022-07-21T09:24:48;94557.03;;;28.01;36.43
11692;BME280;33659;42.672;23.354;2022-07-21T09:27:17;94550.00;;;28.17;36.60
11692;BME280;33659;42.672;23.354;2022-07-21T09:29:46;94546.63;;;28.25;34.91
11692;BME280;33659;42.672;23.354;2022-07-21T09:32:19;94546.50;;;28.29;35.32
11692;BME280;33659;42.672;23.354;2022-07-21T09:34:51;94542.28;;;28.41;35.32
11692;BME280;33659;42.672;23.354;2022-07-21T09:37:19;94552.03;;;28.47;34.49
11692;BME280;33659;42.672;23.354;2022-07-21T09:39:48;94539.66;;;28.50;34.48
11692;BME280;33659;42.672;23.354;2022-07-21T09:42:18;94535.84;;;28.60;33.83
11692;BME280;33659;42.672;23.354;2022-07-21T09:44:46;94548.66;;;28.56;33.89
11692;BME280;33659;42.672;23.354;2022-07-21T09:47:17;94543.47;;;28.62;33.17
11692;BME280;33659;42.672;23.354;2022-07-21T09:49:44;94540.13;;;28.57;33.51
11692;BME280;33659;42.672;23.354;2022-07-21T09:52:24;94547.59;;;28.53;34.16
11692;BME280;33659;42.672;23.354;2022-07-21T09:54:52;94542.09;;;28.57;34.36
11692;BME280;33659;42.672;23.354;2022-07-21T09:57:20;94540.41;;;28.50;34.49
11692;BME280;33659;42.672;23.354;2022-07-21T09:59:48;94537.16;;;28.55;34.17
11692;BME280;33659;42.672;23.354;2022-07-21T10:02:24;94540.22;;;28.67;33.83
11692;BME280;33659;42.672;23.354;2022-07-21T10:04:56;94540.53;;;28.78;34.06
11692;BME280;33659;42.672;23.354;2022-07-21T10:07:25;94533.81;;;28.73;33.90
11692;BME280;33659;42.672;23.354;2022-07-21T10:09:53;94520.28;;;28.86;33.83
11692;BME280;33659;42.672;23.354;2022-07-21T10:12:20;94522.59;;;28.97;34.06
11692;BME280;33659;42.672;23.354;2022-07-21T10:14:48;94520.06;;;29.02;33.58
11692;BME280;33659;42.672;23.354;2022-07-21T10:17:15;94518.56;;;29.01;33.60
11692;BME280;33659;42.672;23.354;2022-07-21T10:19:52;94526.34;;;28.99;33.71
11692;BME280;33659;42.672;23.354;2022-07-21T10:22:28;94520.69;;;29.06;33.05
11692;BME280;33659;42.672;23.354;2022-07-21T10:24:58;94511.28;;;29.11;33.17
11692;BME280;33659;42.672;23.354;2022-07-21T10:27:25;94516.22;;;29.12;32.67
11692;BME280;33659;42.672;23.354;2022-07-21T10:29:57;94517.28;;;29.15;33.00
11692;BME280;33659;42.672;23.354;2022-07-21T10:32:31;94512.38;;;29.23;32.46
11692;BME280;33659;42.672;23.354;2022-07-21T10:35:00;94511.03;;;29.18;33.16
11692;BME280;33659;42.672;23.354;2022-07-21T10:37:49;94505.75;;;29.05;32.62
11692;BME280;33659;42.672;23.354;2022-07-21T10:40:38;94500.97;;;29.09;32.45
11692;BME280;33659;42.672;23.354;2022-07-21T10:43:42;94506.81;;;29.17;32.85
11692;BME280;33659;42.672;23.354;2022-07-21T10:46:32;94512.97;;;29.18;32.32
11692;BME280;33659;42.672;23.354;2022-07-21T10:49:00;94485.34;;;29.26;32.65
11692;BME280;33659;42.672;23.354;2022-07-21T10:51:27;94498.19;;;29.31;32.66
11692;BME280;33659;42.672;23.354;2022-07-21T10:54:25;94486.25;;;29.41;31.98
11692;BME280;33659;42.672;23.354;2022-07-21T10:57:26;94482.22;;;29.46;32.14
11692;BME280;33659;42.672;23.354;2022-07-21T11:00:16;94475.66;;;29.47;32.51
11692;BME280;33659;42.672;23.354;2022-07-21T11:02:43;94476.88;;;29.55;32.64
11692;BME280;33659;42.672;23.354;2022-07-21T11:05:10;94467.16;;;29.58;33.07
11692;BME280;33659;42.672;23.354;2022-07-21T11:08:12;94473.28;;;29.67;32.88
11692;BME280;33659;42.672;23.354;2022-07-21T11:10:43;94472.69;;;29.82;32.53
11692;BME280;33659;42.672;23.354;2022-07-21T11:13:10;94462.22;;;29.93;32.34
11692;BME280;33659;42.672;23.354;2022-07-21T11:15:47;94461.03;;;29.94;31.74
11692;BME280;33659;42.672;23.354;2022-07-21T11:18:17;94467.91;;;29.86;31.50
11692;BME280;33659;42.672;23.354;2022-07-21T11:21:05;94465.81;;;29.81;31.49
11692;BME280;33659;42.672;23.354;2022-07-21T11:23:38;94468.38;;;29.84;31.90
11692;BME280;33659;42.672;23.354;2022-07-21T11:26:07;94462.69;;;29.91;31.81
11692;BME280;33659;42.672;23.354;2022-07-21T11:28:34;94464.59;;;30.00;32.21
11692;BME280;33659;42.672;23.354;2022-07-21T11:31:12;94463.41;;;30.19;31.60
11692;BME280;33659;42.672;23.354;2022-07-21T11:33:43;94463.84;;;30.36;30.71
11692;BME280;33659;42.672;23.354;2022-07-21T11:36:22;94455.88;;;30.42;30.99
11692;BME280;33659;42.672;23.354;2022-07-21T11:39:00;94448.94;;;30.59;30.73
11692;BME280;33659;42.672;23.354;2022-07-21T11:41:28;94462.72;;;30.61;30.58
11692;BME280;33659;42.672;23.354;2022-07-21T11:43:55;94458.53;;;30.60;30.05
11692;BME280;33659;42.672;23.354;2022-07-21T11:46:22;94456.69;;;30.76;30.85
11692;BME280;33659;42.672;23.354;2022-07-21T11:49:00;94452.03;;;30.76;30.04
11692;BME280;33659;42.672;23.354;2022-07-21T11:51:27;94447.38;;;30.86;30.37
11692;BME280;33659;42.672;23.354;2022-07-21T11:53:54;94457.06;;;30.92;30.37
11692;BME280;33659;42.672;23.354;2022-07-21T11:56:21;94461.72;;;30.92;29.92
11692;BME280;33659;42.672;23.354;2022-07-21T11:58:49;94451.03;;;30.97;29.60
11692;BME280;33659;42.672;23.354;2022-07-21T12:01:16;94444.78;;;30.91;29.75
11692;BME280;33659;42.672;23.354;2022-07-21T12:03:48;94442.31;;;31.02;29.48
11692;BME280;33659;42.672;23.354;2022-07-21T12:06:16;94446.63;;;31.09;29.56
11692;BME280;33659;42.672;23.354;2022-07-21T12:08:44;94444.34;;;31.17;29.53
11692;BME280;33659;42.672;23.354;2022-07-21T12:11:11;94449.44;;;31.15;29.06
11692;BME280;33659;42.672;23.354;2022-07-21T12:13:57;94440.28;;;31.21;29.46
11692;BME280;33659;42.672;23.354;2022-07-21T12:16:24;94430.56;;;31.24;30.14
11692;BME280;33659;42.672;23.354;2022-07-21T12:19:09;94434.13;;;31.30;29.31
11692;BME280;33659;42.672;23.354;2022-07-21T12:21:46;94445.66;;;31.31;29.89
11692;BME280;33659;42.672;23.354;2022-07-21T12:24:13;94443.69;;;31.31;29.69
11692;BME280;33659;42.672;23.354;2022-07-21T12:26:40;94422.97;;;31.37;29.48
11692;BME280;33659;42.672;23.354;2022-07-21T12:29:08;94424.75;;;31.55;29.23
11692;BME280;33659;42.672;23.354;2022-07-21T12:31:36;94405.88;;;31.55;29.49
11692;BME280;33659;42.672;23.354;2022-07-21T12:34:11;94433.19;;;31.72;29.30
11692;BME280;33659;42.672;23.354;2022-07-21T12:36:39;94425.06;;;31.57;29.29
11692;BME280;33659;42.672;23.354;2022-07-21T12:39:16;94421.91;;;31.59;29.45
11692;BME280;33659;42.672;23.354;2022-07-21T12:42:07;94423.13;;;31.72;29.48
11692;BME280;33659;42.672;23.354;2022-07-21T12:44:37;94410.50;;;31.78;29.57
11692;BME280;33659;42.672;23.354;2022-07-21T12:47:18;94418.44;;;31.97;29.19
11692;BME280;33659;42.672;23.354;2022-07-21T12:49:56;94401.66;;;31.93;29.92
11692;BME280;33659;42.672;23.354;2022-07-21T12:52:24;94407.06;;;31.93;29.38
11692;BME280;33659;42.672;23.354;2022-07-21T12:54:51;94410.19;;;31.76;29.46
11692;BME280;33659;42.672;23.354;2022-07-21T12:57:18;94414.13;;;31.75;29.22
11692;BME280;33659;42.672;23.354;2022-07-21T12:59:46;94405.84;;;31.94;29.79